White Oak, Texas
Current Conditions -  °F | °C
As of 12:53 PM on Sunday 21 Dec 2014 (Local Time) from KGGG Reporting Station
Overcast Overcast  
Wind Chill: 49°   Ceiling: 1900
Heat Index: 49°   Visibility: 10mi
Dew Point: 42°   Wind: 3mph
Humidity: 77%   Direction: 230°SW
Pressure: 30.04"   Gusts: NA
Location:  32.52°N, 94.86°W
Report Text: KGGG 211853Z 23003KT 10SM FEW012 OVC019 09/06 A3004 RMK AO2 SLP175 T00940056
Loading
Personal Weather Stations






























Interactive Weather Map New forecast layout! Learn more

10-Day Weather Forecast

Advertisements
Track Severe Weather on mobile